Thunder radar more information blitzortung!


avis per Snow/Ice more information rain snow radar


Visita la nostra xarxa de llocs de meteo:

Template documentation
and downloads

And another site



Snow/Ice From: 26-02-2018 12:00 Until: 27-02-2018 05:59 warning for: Snow/Ice Level: Yellow info button

Pagina Historial Weather Underground text

Diari Resum January 26, 2018 Unitats:  Imperial    Mètric   Tant
« Previous Dia
SegĂźent Dia »
Diari Setmana Mensual Anual Personalitzada
  Maxima: Minima: Media:
Temperatura: TemperatureC °F 4.3 °F 6 °F
Punt de rosada: DewpointC °F 2.4 °F 4 °F
Humitat: Humidity % 84 % 86 %
Wind Speed: WindSpeedKMH mph 0.0 mph 4.9 mph
RĂ fegues de vent: WindSpeedGustKMH mph - -
Vent:- - SSE
Pression baro: PressurehPa in 1013.8 in -
Precipitacions: 42.4 in    
Historical Graphs
 
 
Dades de taula per January 26, 2018
Temps Temperatura Punt de rosada Pression baro Vent Wind Speed RĂ fegues de vent Humitat Rainfall Rate (Hourly)
TemperatureC °F DewpointC °F PressurehPa in Calm     Humidity % HourlyPrecipMM in
00:00 7.9 °F 6.1 °F 1013.8 in WSW 1.6 mph 3.2 mph 88 % 2.0 in
00:03 10.4 °F 7.8 °F 1015.8 in East 3.7 mph 3.9 mph 84 % 0.0 in
00:08 10.3 °F 7.7 °F 1015.8 in NE 5.6 mph 5.6 mph 84 % 0.0 in
00:10 7.8 °F 5.9 °F 1013.8 in West 4.8 mph 4.8 mph 88 % 2.3 in
00:13 10.3 °F 7.9 °F 1015.8 in NNE 5.6 mph 5.6 mph 85 % 0.0 in
00:18 10.3 °F 7.9 °F 1015.8 in NE 5.6 mph 5.6 mph 85 % 0.0 in
00:20 7.8 °F 5.9 °F 1013.8 in Calm   4.8 mph 88 % 1.3 in
00:23 10.3 °F 7.9 °F 1015.8 in ENE 3.7 mph 3.7 mph 85 % 0.0 in
00:28 10.3 °F 7.9 °F 1015.8 in North 4.7 mph 4.7 mph 85 % 0.0 in
00:30 7.7 °F 5.8 °F 1013.8 in WSW 3.2 mph 4.8 mph 88 % 0.0 in
00:33 10.3 °F 8.1 °F 1015.8 in Calm     86 % 0.0 in
00:38 10.2 °F 7.9 °F 1015.8 in NNE 3.9 mph 3.9 mph 86 % 0.0 in
00:40 7.7 °F 5.7 °F 1013.8 in WSW 3.2 mph 6.4 mph 87 % 0.0 in
00:43 10.2 °F 7.9 °F 1015.8 in NE 1.9 mph 1.9 mph 86 % 0.0 in
00:48 10.2 °F 7.9 °F 1015.8 in NNW 1.9 mph   86 % 0.0 in
00:50 7.7 °F 5.8 °F 1013.8 in West 3.2 mph 4.8 mph 88 % 0.0 in
00:53 10.2 °F 7.9 °F 1015.8 in NNW 1.9 mph   86 % 0.0 in
00:58 10.2 °F 8.1 °F 1015.8 in Calm     87 % 0.0 in
01:00 7.7 °F 5.8 °F 1013.8 in Calm   3.2 mph 88 % 0.0 in
01:03 10.2 °F 8.1 °F 1014.8 in NNE 3.7 mph 3.7 mph 87 % 0.0 in
01:08 10.2 °F 8.1 °F 1014.8 in NNE 1.9 mph 1.9 mph 87 % 0.0 in
01:10 7.6 °F 5.7 °F 1013.8 in Calm   3.2 mph 88 % 0.0 in
01:13 10.2 °F 8.1 °F 1014.8 in Calm     87 % 0.0 in
01:18 10.2 °F 8.1 °F 1014.8 in NNE 1.9 mph 1.9 mph 87 % 0.0 in
01:20 7.6 °F 5.7 °F 1013.8 in Calm   3.2 mph 88 % 0.0 in
01:23 10.1 °F 8.1 °F 1014.8 in NNE 5.6 mph 5.6 mph 87 % 0.0 in
01:28 10.1 °F 8.2 °F 1014.8 in NE 3.7 mph 3.7 mph 88 % 1.0 in
01:30 7.7 °F 6.0 °F 1013.8 in WNW 1.6 mph 3.2 mph 89 % 1.0 in
01:33 10.1 °F 8.2 °F 1014.8 in North 2.6 mph 2.6 mph 88 % 1.0 in
01:38 10.1 °F 8.2 °F 1014.8 in NE 5.6 mph 5.6 mph 88 % 1.0 in
01:40 7.7 °F 6.0 °F 1013.8 in Calm   3.2 mph 89 % 1.0 in
01:43 10.1 °F 8.2 °F 1014.8 in Calm     88 % 1.0 in
01:48 10.1 °F 8.2 °F 1014.8 in Calm     88 % 1.0 in
01:50 7.6 °F 5.9 °F 1013.8 in NNE 3.2 mph 6.4 mph 89 % 0.0 in
01:53 10.2 °F 8.3 °F 1014.8 in NNE 3.7 mph 3.9 mph 88 % 1.0 in
01:58 10.1 °F 8.2 °F 1014.8 in NNE 5.6 mph 5.6 mph 88 % 1.0 in
02:00 7.3 °F 5.4 °F 1013.8 in NNE 3.2 mph 14.5 mph 88 % 0.0 in
02:03 10.1 °F 8.4 °F 1013.8 in NNE 4.2 mph 4.2 mph 89 % 1.0 in
02:08 10.1 °F 8.4 °F 1013.8 in NNE 5.6 mph 5.6 mph 89 % 1.0 in
02:10 7.0 °F 5.0 °F 1013.8 in NNE 3.2 mph 9.7 mph 87 % 0.0 in
02:13 10.1 °F 8.4 °F 1013.8 in ENE 3.7 mph 3.7 mph 89 % 1.0 in
02:18 10.1 °F 8.4 °F 1013.8 in Calm     89 % 1.0 in
02:20 6.7 °F 4.7 °F 1014.8 in WNW 3.2 mph 4.8 mph 87 % 0.0 in
02:23 10.1 °F 8.4 °F 1013.8 in ENE 1.9 mph   89 % 1.0 in
02:28 10.1 °F 8.4 °F 1013.8 in ENE 1.9 mph   89 % 0.0 in
02:30 6.6 °F 4.4 °F 1014.8 in WNW 4.8 mph 11.3 mph 86 % 0.0 in
02:33 10.1 °F 8.4 °F 1013.8 in Calm     89 % 0.0 in
02:38 10.1 °F 8.4 °F 1013.8 in WSW 3.7 mph 3.7 mph 89 % 0.0 in
02:40 6.4 °F 4.2 °F 1014.8 in NNW 4.8 mph 8.0 mph 86 % 3.0 in
02:43 10.1 °F 8.4 °F 1013.8 in WSW 3.7 mph 3.7 mph 89 % 0.0 in
02:48 10.1 °F 8.2 °F 1013.8 in West 3.7 mph 3.7 mph 88 % 0.0 in
02:50 6.1 °F 3.9 °F 1014.8 in NNE 8.0 mph 8.0 mph 86 % 3.0 in
02:53 10.2 °F 8.3 °F 1013.8 in WSW 3.7 mph 3.7 mph 88 % 0.0 in
02:58 9.9 °F 8.0 °F 1013.8 in SW 5.8 mph 5.8 mph 88 % 0.0 in
03:00 6.0 °F 3.7 °F 1014.8 in NE 8.0 mph 16.1 mph 85 % 2.0 in
09:09 5.8 °F 3.6 °F 1014.8 in NNE 5.6 mph 10.0 mph 86 % 7.4 in
09:14 5.8 °F 3.6 °F 1014.8 in ENE 16.7 mph 16.7 mph 86 % 7.4 in
09:19 5.8 °F 3.6 °F 1014.8 in East 16.7 mph 16.7 mph 86 % 6.3 in
09:24 5.7 °F 3.7 °F 1014.8 in NW 14.8 mph 14.8 mph 87 % 6.3 in
09:29 5.7 °F 3.7 °F 1014.8 in NNE 24.1 mph 24.1 mph 87 % 6.3 in
09:34 5.6 °F 3.6 °F 1014.8 in ENE 16.7 mph 16.7 mph 87 % 6.3 in
09:39 5.6 °F 3.6 °F 1014.8 in NNE 16.7 mph 16.7 mph 87 % 7.4 in
09:44 5.6 °F 3.6 °F 1014.8 in ENE 14.8 mph 14.8 mph 87 % 7.4 in
09:49 5.6 °F 3.6 °F 1015.8 in NNW 9.3 mph 9.3 mph 87 % 7.4 in
09:54 5.6 °F 3.6 °F 1015.8 in NE 16.7 mph 16.7 mph 87 % 5.3 in
09:59 5.6 °F 3.6 °F 1015.8 in NNE 5.6 mph 5.6 mph 87 % 6.3 in
10:04 5.6 °F 3.6 °F 1015.8 in NNE 7.4 mph 7.4 mph 87 % 4.3 in
10:09 5.6 °F 3.6 °F 1015.8 in WNW 9.3 mph 9.3 mph 87 % 3.0 in
10:14 5.6 °F 3.6 °F 1015.8 in NNW 3.9 mph 3.9 mph 87 % 3.0 in
10:19 5.7 °F 3.7 °F 1016.8 in NNE 3.9 mph 3.9 mph 87 % 4.1 in
10:24 5.7 °F 3.7 °F 1016.8 in WNW 3.7 mph 3.7 mph 87 % 4.1 in
10:29 5.7 °F 3.7 °F 1016.8 in NE 5.8 mph 5.8 mph 87 % 4.1 in
10:34 5.6 °F 3.6 °F 1017.8 in NNE 10.3 mph 10.3 mph 87 % 4.1 in
10:39 5.6 °F 3.6 °F 1017.8 in ENE 9.3 mph 9.3 mph 87 % 3.0 in
10:44 5.5 °F 3.3 °F 1017.8 in NNE 9.3 mph 9.3 mph 86 % 3.0 in
10:49 5.5 °F 3.3 °F 1017.8 in NNE 7.4 mph 7.4 mph 86 % 3.0 in
10:54 5.4 °F 3.2 °F 1017.8 in NNE 11.1 mph 11.1 mph 86 % 5.3 in
10:59 5.4 °F 3.2 °F 1017.8 in NNE 11.4 mph 11.4 mph 86 % 5.3 in
11:04 5.3 °F 3.2 °F 1017.8 in NNE 11.1 mph 11.1 mph 86 % 5.3 in
11:09 5.3 °F 3.2 °F 1017.8 in NNE 4.2 mph 4.2 mph 86 % 5.3 in
11:14 5.3 °F 3.2 °F 1017.8 in NE 9.3 mph 9.3 mph 86 % 6.3 in
11:19 5.3 °F 3.2 °F 1017.8 in North 10.0 mph 10.0 mph 86 % 5.3 in
11:24 5.2 °F 3.1 °F 1017.8 in NNE 11.1 mph 11.1 mph 86 % 5.3 in
11:29 5.2 °F 3.1 °F 1017.8 in NNE 13.0 mph 13.0 mph 86 % 5.3 in
11:34 5.3 °F 3.2 °F 1016.8 in NNE 11.1 mph 11.1 mph 86 % 5.3 in
11:39 5.2 °F 3.1 °F 1016.8 in NNE 14.8 mph 14.8 mph 86 % 5.3 in
11:44 5.3 °F 3.2 °F 1016.8 in NNE 11.1 mph 11.1 mph 86 % 5.3 in
11:49 5.3 °F 3.2 °F 1016.8 in NNE 11.1 mph 11.1 mph 86 % 5.3 in
11:54 5.3 °F 3.2 °F 1016.8 in NNE 13.0 mph 13.0 mph 86 % 2.0 in
11:59 5.2 °F 3.1 °F 1016.8 in NNE 11.1 mph 11.1 mph 86 % 2.0 in
12:04 5.2 °F 3.1 °F 1016.8 in NNE 16.7 mph 16.7 mph 86 % 2.0 in
12:09 5.2 °F 3.1 °F 1016.8 in NNE 13.0 mph 13.0 mph 86 % 2.0 in
12:14 5.1 °F 2.9 °F 1016.8 in NNE 16.7 mph 16.7 mph 86 % 1.0 in
12:19 5.1 °F 2.8 °F 1016.8 in North 13.0 mph 13.0 mph 85 % 1.0 in
12:24 5.1 °F 2.9 °F 1016.8 in NNE 9.3 mph 9.3 mph 86 % 1.0 in
12:29 5.1 °F 2.9 °F 1016.8 in NNE 7.4 mph 7.4 mph 86 % 1.0 in
12:34 5.0 °F 2.8 °F 1016.8 in NNW 10.3 mph 10.3 mph 86 % 2.0 in
12:39 5.0 °F 2.8 °F 1016.8 in West 9.3 mph 9.3 mph 86 % 2.0 in
12:44 5.0 °F 2.8 °F 1016.8 in NNW 7.4 mph 7.6 mph 86 % 2.0 in
12:49 5.0 °F 2.8 °F 1015.8 in ENE 9.3 mph 9.3 mph 86 % 2.0 in
12:54 5.0 °F 2.8 °F 1015.8 in NE 4.7 mph 4.7 mph 86 % 2.0 in
12:59 5.0 °F 2.8 °F 1015.8 in ENE 5.3 mph 5.3 mph 86 % 1.0 in
13:04 5.0 °F 2.8 °F 1016.8 in West 7.4 mph 7.4 mph 86 % 1.0 in
13:09 4.9 °F 2.8 °F 1016.8 in NNE 7.4 mph 7.4 mph 86 % 1.0 in
13:14 4.9 °F 2.8 °F 1016.8 in North 7.4 mph 7.4 mph 86 % 2.0 in
13:19 4.9 °F 2.8 °F 1016.8 in ENE 7.9 mph 7.9 mph 86 % 2.0 in
13:24 4.9 °F 2.8 °F 1016.8 in NNW 5.6 mph 5.6 mph 86 % 2.0 in
13:29 4.9 °F 2.8 °F 1016.8 in NNE 5.6 mph 5.6 mph 86 % 3.3 in
13:34 4.9 °F 2.8 °F 1015.8 in NNE 5.6 mph 5.6 mph 86 % 2.3 in
13:39 4.9 °F 2.8 °F 1015.8 in NE 5.6 mph 5.6 mph 86 % 2.3 in
13:44 4.9 °F 2.8 °F 1015.8 in WSW 7.4 mph 7.4 mph 86 % 2.3 in
13:49 5.0 °F 2.7 °F 1015.8 in ENE 9.3 mph 9.3 mph 85 % 2.3 in
13:54 5.0 °F 2.7 °F 1015.8 in NE 9.3 mph 9.3 mph 85 % 3.3 in
13:59 5.1 °F 2.8 °F 1015.8 in NNW 11.1 mph 11.1 mph 85 % 3.3 in
14:04 5.2 °F 3.1 °F 1016.8 in SW 3.7 mph 3.7 mph 86 % 3.3 in
14:09 5.2 °F 3.1 °F 1016.8 in WSW 5.6 mph 5.6 mph 86 % 3.3 in
14:14 5.3 °F 3.2 °F 1016.8 in SW 3.9 mph 3.9 mph 86 % 3.3 in
14:19 5.4 °F 3.2 °F 1015.8 in West 3.7 mph 3.7 mph 86 % 3.3 in
14:24 5.4 °F 3.2 °F 1015.8 in SW 3.7 mph 3.7 mph 86 % 3.3 in
14:29 5.6 °F 3.4 °F 1015.8 in SW 3.7 mph 3.7 mph 86 % 2.0 in
14:34 5.6 °F 3.6 °F 1016.8 in WSW 5.6 mph 5.6 mph 87 % 2.0 in
14:39 5.6 °F 3.6 °F 1016.8 in NW 9.3 mph 9.3 mph 87 % 2.0 in
14:44 5.5 °F 3.5 °F 1016.8 in West 5.6 mph 5.6 mph 87 % 2.0 in
14:49 5.3 °F 3.2 °F 1016.8 in West 7.4 mph 7.4 mph 86 % 2.0 in
14:54 5.2 °F 3.1 °F 1016.8 in WSW 11.1 mph 11.1 mph 86 % 2.0 in
14:59 5.0 °F 2.8 °F 1016.8 in South 13.0 mph 13.0 mph 86 % 2.0 in
15:04 4.9 °F 2.8 °F 1017.8 in WSW 9.3 mph 9.3 mph 86 % 2.0 in
15:09 4.8 °F 2.7 °F 1017.8 in WSW 9.3 mph 9.3 mph 86 % 2.0 in
15:14 4.8 °F 2.7 °F 1017.8 in WSW 7.6 mph 7.6 mph 86 % 1.0 in
15:19 4.7 °F 2.6 °F 1017.8 in WSW 9.7 mph 9.7 mph 86 % 1.0 in
15:24 4.7 °F 2.6 °F 1017.8 in WSW 7.6 mph 7.6 mph 86 % 1.0 in
15:29 4.6 °F 2.4 °F 1017.8 in WSW 7.4 mph 7.4 mph 86 % 1.0 in
15:34 4.6 °F 2.4 °F 1016.8 in WSW 11.1 mph 11.1 mph 86 % 1.0 in
15:39 4.6 °F 2.4 °F 1016.8 in West 18.5 mph 18.5 mph 86 % 1.0 in
15:44 4.6 °F 2.4 °F 1016.8 in WNW 14.8 mph 14.8 mph 86 % 1.0 in
15:49 4.6 °F 2.4 °F 1017.8 in NW 9.3 mph 9.3 mph 86 % 1.0 in
15:54 4.6 °F 2.4 °F 1017.8 in West 9.7 mph 9.7 mph 86 % 0.0 in
15:59 4.7 °F 2.6 °F 1017.8 in NW 16.7 mph 16.7 mph 86 % 0.0 in
16:04 4.8 °F 2.7 °F 1017.8 in WSW 9.3 mph 9.3 mph 86 % 0.0 in
16:09 4.7 °F 2.6 °F 1017.8 in WNW 9.3 mph 9.3 mph 86 % 0.0 in
16:14 4.8 °F 2.7 °F 1017.8 in SSW 5.6 mph 5.6 mph 86 % 0.0 in
16:19 4.8 °F 2.7 °F 1017.8 in WSW 11.1 mph 11.1 mph 86 % 0.0 in
16:24 4.8 °F 2.7 °F 1017.8 in SW 9.3 mph 9.3 mph 86 % 0.0 in
16:26 4.8 °F 2.7 °F 1017.8 in WSW 9.3 mph 9.3 mph 86 % 0.0 in
16:31 4.9 °F 2.8 °F 1017.8 in WSW 3.7 mph 3.7 mph 86 % 0.0 in
16:36 4.9 °F 2.8 °F 1017.8 in SW 5.6 mph 5.6 mph 86 % 0.0 in
16:41 4.9 °F 2.6 °F 1017.8 in WSW 9.3 mph 9.3 mph 85 % 0.0 in
16:46 5.0 °F 2.7 °F 1017.8 in NNE 9.3 mph 9.3 mph 85 % 0.0 in
16:51 5.0 °F 2.7 °F 1017.8 in West 7.4 mph 7.4 mph 85 % 1.0 in
16:56 5.0 °F 2.7 °F 1017.8 in WNW 5.6 mph 5.6 mph 85 % 1.0 in
17:01 5.1 °F 2.8 °F 1017.8 in SW 1.9 mph   85 % 1.0 in
17:06 5.1 °F 2.8 °F 1017.8 in WSW 3.7 mph 3.7 mph 85 % 1.0 in
17:11 5.1 °F 2.8 °F 1017.8 in Calm     85 % 1.0 in
17:16 5.1 °F 2.8 °F 1017.8 in WSW 3.7 mph 3.7 mph 85 % 1.0 in
17:21 5.2 °F 2.9 °F 1017.8 in West 3.7 mph   85 % 1.0 in
17:26 5.2 °F 2.9 °F 1017.8 in WSW 1.9 mph   85 % 1.0 in
17:31 5.2 °F 3.1 °F 1017.8 in SW 2.3 mph 2.3 mph 86 % 1.0 in
17:36 5.2 °F 3.1 °F 1017.8 in Calm     86 % 1.0 in
17:41 5.2 °F 3.1 °F 1017.8 in Calm     86 % 1.0 in
17:46 5.3 °F 3.2 °F 1017.8 in SW 3.7 mph 3.7 mph 86 % 1.0 in
17:51 5.3 °F 3.2 °F 1017.8 in Calm     86 % 0.0 in
17:56 5.3 °F 3.2 °F 1017.8 in WSW 1.9 mph 1.9 mph 86 % 0.0 in
18:01 5.2 °F 3.1 °F 1017.8 in SW 3.7 mph 3.7 mph 86 % 0.0 in
18:06 5.2 °F 3.1 °F 1017.8 in SW 1.9 mph 2.3 mph 86 % 0.0 in
18:11 5.2 °F 3.1 °F 1017.8 in WSW 5.8 mph 5.8 mph 86 % 0.0 in
18:15 5.2 °F 3.1 °F 1017.8 in SW 1.6 mph 6.4 mph 86 % 0.0 in
18:20 5.2 °F 3.1 °F 1017.8 in NE 3.7 mph   86 % 0.0 in
18:25 5.2 °F 3.2 °F 1017.8 in Calm     87 % 0.0 in
18:30 5.2 °F 3.1 °F 1017.8 in Calm   3.2 mph 86 % 0.0 in
18:35 5.2 °F 3.2 °F 1018.8 in WSW 2.3 mph 2.3 mph 87 % 0.0 in
18:40 5.3 °F 3.3 °F 1018.8 in WSW 1.9 mph   87 % 0.0 in
18:45 5.3 °F 3.3 °F 1018.8 in Calm     87 % 0.0 in
18:50 5.3 °F 3.3 °F 1018.8 in Calm     87 % 0.0 in
18:55 5.3 °F 3.3 °F 1018.8 in Calm     87 % 0.0 in
19:00 5.3 °F 3.3 °F 1018.8 in Calm     87 % 0.0 in
19:05 5.3 °F 3.3 °F 1018.8 in WSW 2.6 mph 2.6 mph 87 % 0.0 in
19:10 5.3 °F 3.3 °F 1018.8 in SW 1.9 mph   87 % 0.0 in
19:15 5.3 °F 3.3 °F 1018.8 in Calm   3.2 mph 87 % 0.0 in
19:20 5.2 °F 3.2 °F 1018.8 in Calm     87 % 0.0 in
19:25 5.2 °F 3.2 °F 1018.8 in Calm     87 % 0.0 in
19:30 5.2 °F 3.2 °F 1018.8 in Calm     87 % 0.0 in
19:35 5.2 °F 3.2 °F 1018.8 in SW 1.6 mph 4.8 mph 87 % 0.0 in
19:40 5.1 °F 3.1 °F 1018.8 in WSW 3.7 mph 3.7 mph 87 % 0.0 in
19:45 5.2 °F 3.2 °F 1018.8 in Calm     87 % 0.0 in
19:50 5.2 °F 3.2 °F 1018.8 in Calm   3.2 mph 87 % 0.0 in
19:55 5.2 °F 3.2 °F 1018.8 in WSW 3.7 mph 3.7 mph 87 % 0.0 in
20:00 5.2 °F 3.2 °F 1018.8 in West 1.6 mph 4.8 mph 87 % 0.0 in
20:05 5.2 °F 3.2 °F 1019.9 in West 1.6 mph 3.2 mph 87 % 0.0 in
20:10 5.2 °F 3.2 °F 1019.9 in Calm     87 % 0.0 in
20:15 5.2 °F 3.2 °F 1019.9 in WSW 2.6 mph 2.6 mph 87 % 0.0 in
20:20 5.2 °F 3.2 °F 1019.9 in Calm     87 % 0.0 in
20:25 5.2 °F 3.2 °F 1019.9 in WSW 1.9 mph   87 % 0.0 in
20:30 5.2 °F 3.2 °F 1019.9 in Calm     87 % 0.0 in
20:35 5.3 °F 3.5 °F 1019.9 in Calm     88 % 0.0 in
20:40 5.3 °F 3.5 °F 1019.9 in Calm     88 % 0.0 in
20:45 5.3 °F 3.5 °F 1019.9 in Calm     88 % 0.0 in
20:50 5.2 °F 3.4 °F 1019.9 in Calm     88 % 0.0 in
20:55 5.2 °F 3.4 °F 1019.9 in Calm     88 % 0.0 in
21:00 5.2 °F 3.4 °F 1019.9 in WSW 3.7 mph   88 % 0.0 in
21:05 5.2 °F 3.4 °F 1019.9 in Calm     88 % 0.0 in
21:10 5.2 °F 3.4 °F 1019.9 in Calm     88 % 0.0 in
21:15 5.2 °F 3.4 °F 1019.9 in Calm   3.2 mph 88 % 0.0 in
21:20 5.2 °F 3.4 °F 1019.9 in Calm     88 % 0.0 in
21:25 5.2 °F 3.4 °F 1019.9 in Calm     88 % 0.0 in
21:30 5.2 °F 3.4 °F 1019.9 in NNE 1.9 mph   88 % 0.0 in
21:35 5.3 °F 3.5 °F 1019.9 in NNE 2.6 mph 2.6 mph 88 % 0.0 in
21:40 5.2 °F 3.4 °F 1019.9 in Calm   3.2 mph 88 % 0.0 in
21:45 5.2 °F 3.4 °F 1019.9 in NE 1.9 mph 1.9 mph 88 % 0.0 in
21:50 5.1 °F 3.3 °F 1019.9 in Calm     88 % 0.0 in
21:55 5.1 °F 3.2 °F 1019.9 in Calm     88 % 0.0 in
22:00 4.9 °F 3.1 °F 1019.9 in Calm     88 % 0.0 in
22:05 4.9 °F 3.1 °F 1019.9 in West 2.3 mph 2.6 mph 88 % 0.0 in
22:10 4.8 °F 3.0 °F 1019.9 in Calm   3.2 mph 88 % 0.0 in
22:15 4.8 °F 2.9 °F 1019.9 in Calm     88 % 0.0 in
22:20 4.8 °F 3.0 °F 1019.9 in Calm     88 % 0.0 in
22:25 4.7 °F 2.9 °F 1019.9 in WSW 1.9 mph   88 % 0.0 in
22:30 4.7 °F 2.9 °F 1019.9 in Calm   1.6 mph 88 % 0.0 in
22:35 4.7 °F 2.9 °F 1019.9 in WSW 2.3 mph 2.3 mph 88 % 0.0 in
22:40 4.7 °F 2.9 °F 1019.9 in Calm   1.6 mph 88 % 0.0 in
22:45 4.7 °F 2.9 °F 1019.9 in WSW 1.6 mph 3.2 mph 88 % 0.0 in
22:50 4.7 °F 2.9 °F 1019.9 in Calm     88 % 0.0 in
22:55 4.6 °F 2.8 °F 1019.9 in Calm     88 % 0.0 in
23:00 4.6 °F 2.8 °F 1019.9 in Calm   1.6 mph 88 % 0.0 in
23:05 4.6 °F 2.8 °F 1019.9 in Calm   1.6 mph 88 % 0.0 in
23:10 4.6 °F 2.8 °F 1019.9 in Calm     88 % 0.0 in
23:15 4.6 °F 2.9 °F 1019.9 in SW 1.9 mph   89 % 0.0 in
23:20 4.5 °F 2.7 °F 1020.9 in Calm     88 % 0.0 in
23:25 4.5 °F 2.7 °F 1020.9 in Calm     88 % 0.0 in
23:30 4.4 °F 2.6 °F 1020.9 in Calm     88 % 0.0 in
23:35 4.4 °F 2.6 °F 1019.9 in Calm     88 % 0.0 in
23:40 4.4 °F 2.6 °F 1019.9 in Calm     88 % 0.0 in
23:45 4.3 °F 2.5 °F 1019.9 in Calm     88 % 0.0 in
23:50 4.4 °F 2.7 °F 1020.9 in Calm     89 % 0.0 in
23:55 4.4 °F 2.7 °F 1020.9 in Calm     89 % 0.0 in
Meteo Sesrovires
Elogis d' Weather Underground - 3.75 mb

Guio original per  Jim McMurry - jmcmurry@mwt.net Adaptat per a la plantilla per  Wim van der Kuil - Leuven-Template.eu

Trobareu la nostra informacio del temps tambe a:

Weather Underground

AWEKAS